Time;durP1;ratioP1;P1;durP2;ratioP2;P2;SDS_P1;SDS_P2;PMS_P1;PMS_P2;Temp;Humidity;BMP_temperature;BMP_pressure;BME280_temperature;BME280_humidity;BME280_pressure;Samples;Min_cycle;Max_cycle;Signal;HPM_P1;HPM_P2
2021/06/29 00:01:47;;;;;;;11.63;8.07;;;;;;;18.51;69.49;98361.47;126162;1093;22754;-81
2021/06/29 00:04:13;;;;;;;12.50;6.77;;;;;;;18.48;69.98;98361.25;126220;1093;22757;-81
2021/06/29 00:06:40;;;;;;;7.93;7.10;;;;;;;18.48;70.15;98358.49;126169;1093;24435;-81
2021/06/29 00:09:07;;;;;;;12.98;7.70;;;;;;;18.47;70.28;98363.20;126191;1091;24267;-81
2021/06/29 00:11:34;;;;;;;10.18;7.05;;;;;;;18.47;69.57;98354.08;126198;1093;22757;-81
2021/06/29 00:14:01;;;;;;;11.23;7.98;;;;;;;18.47;69.18;98348.56;126095;1093;22835;-81
2021/06/29 00:16:27;;;;;;;9.55;6.90;;;;;;;18.47;69.58;98348.56;126233;1093;22827;-81
2021/06/29 00:18:54;;;;;;;10.00;8.13;;;;;;;18.44;70.00;98352.76;126237;1092;22854;-81
2021/06/29 00:21:21;;;;;;;10.50;7.50;;;;;;;18.39;70.27;98345.38;126029;1093;22808;-81
2021/06/29 00:23:48;;;;;;;7.60;6.45;;;;;;;18.35;70.60;98340.77;126164;1093;22781;-81
2021/06/29 00:26:15;;;;;;;10.80;8.13;;;;;;;18.31;70.73;98324.02;126038;1092;22842;-81
2021/06/29 00:28:42;;;;;;;10.23;7.35;;;;;;;18.27;70.94;98331.22;126226;1093;27466;-81
2021/06/29 00:31:09;;;;;;;11.90;7.80;;;;;;;18.16;70.66;98327.80;126172;1093;22778;-81
2021/06/29 00:33:37;;;;;;;15.20;7.78;;;;;;;17.98;70.98;98314.85;126139;1093;22738;-81
2021/06/29 00:36:05;;;;;;;12.70;7.98;;;;;;;17.89;71.76;98322.95;126253;1092;22755;-81
2021/06/29 00:38:33;;;;;;;11.68;7.08;;;;;;;17.89;71.60;98322.15;126220;1093;24130;-81
2021/06/29 00:40:59;;;;;;;13.80;8.00;;;;;;;17.88;70.89;98317.74;126210;1093;22805;-81
2021/06/29 00:43:26;;;;;;;10.58;7.63;;;;;;;17.88;70.98;98321.30;126018;1093;26273;-81
2021/06/29 00:45:53;;;;;;;9.88;7.80;;;;;;;17.92;71.22;98319.62;126247;1093;27531;-81
2021/06/29 00:48:20;;;;;;;11.13;7.45;;;;;;;17.91;71.53;98315.21;126168;1093;22760;-81
2021/06/29 00:50:47;;;;;;;9.33;7.60;;;;;;;17.84;71.66;98322.99;126217;1093;24559;-81
2021/06/29 00:53:15;;;;;;;10.20;6.95;;;;;;;17.78;71.97;98319.49;126018;1092;22838;-81
2021/06/29 00:55:43;;;;;;;10.40;8.10;;;;;;;17.76;71.50;98318.13;126203;1093;22735;-82
2021/06/29 00:58:12;;;;;;;12.75;8.43;;;;;;;17.69;72.01;98317.67;126254;1093;22754;-81
2021/06/29 01:00:42;;;;;;;11.90;7.60;;;;;;;17.61;72.19;98314.47;126121;1093;25947;-81
2021/06/29 01:03:09;;;;;;;13.03;9.00;;;;;;;17.58;72.91;98305.97;126264;1093;26237;-81
2021/06/29 01:05:37;;;;;;;10.53;7.90;;;;;;;17.58;72.23;98304.06;126139;1093;27406;-80
2021/06/29 01:08:04;;;;;;;17.40;8.83;;;;;;;17.61;72.15;98316.41;126094;1093;22777;-81
2021/06/29 01:10:31;;;;;;;9.35;7.18;;;;;;;17.63;72.06;98306.72;126076;1093;22808;-81
2021/06/29 01:12:58;;;;;;;10.25;8.03;;;;;;;17.60;71.95;98314.75;126120;1093;22766;-81
2021/06/29 01:15:25;;;;;;;13.08;8.03;;;;;;;17.57;72.17;98321.69;126204;1093;22772;-81
2021/06/29 01:17:58;;;;;;;10.33;8.03;;;;;;;17.56;72.43;98308.20;126176;1093;27297;-81
2021/06/29 01:20:33;;;;;;;13.13;8.08;;;;;;;17.57;72.47;98309.86;126633;1092;24425;-81
2021/06/29 01:23:08;;;;;;;9.73;7.63;;;;;;;17.54;72.74;98310.44;125988;1092;22841;-81
2021/06/29 01:25:36;;;;;;;8.17;7.10;;;;;;;17.51;72.93;98313.77;126151;1092;22777;-82
2021/06/29 01:28:45;;;;;;;13.83;8.03;;;;;;;17.49;73.04;98304.99;126007;1093;26328;-81
2021/06/29 01:31:02;;;;;;;13.48;8.33;;;;;;;17.45;72.63;98307.52;126188;1092;22790;-81
2021/06/29 01:33:30;;;;;;;11.25;8.18;;;;;;;17.44;72.47;98303.11;126113;1093;23097;-81
2021/06/29 01:35:56;;;;;;;10.63;8.43;;;;;;;17.45;71.50;98307.52;126220;1093;27157;-81
2021/06/29 01:38:23;;;;;;;10.40;8.00;;;;;;;17.44;71.87;98309.45;126037;1093;22876;-81
2021/06/29 01:40:51;;;;;;;10.98;8.75;;;;;;;17.39;72.51;98309.52;126019;1093;22794;-81
2021/06/29 01:43:26;;;;;;;9.60;7.60;;;;;;;17.36;73.04;98303.78;126159;1093;22774;-81
2021/06/29 01:45:55;;;;;;;9.23;7.88;;;;;;;17.34;73.16;98306.02;126072;1092;22781;-81
2021/06/29 01:48:36;;;;;;;13.95;8.40;;;;;;;17.33;72.95;98301.60;126171;1093;22795;-81
2021/06/29 01:51:03;;;;;;;11.23;8.67;;;;;;;17.31;73.01;98301.89;126066;1093;22807;-81
2021/06/29 01:53:30;;;;;;;11.93;8.10;;;;;;;17.28;72.53;98296.97;126167;1093;22760;-81
2021/06/29 01:55:57;;;;;;;10.27;7.33;;;;;;;17.29;72.33;98295.05;126172;1093;24286;-81
2021/06/29 01:58:26;;;;;;;13.27;9.33;;;;;;;17.23;72.70;98291.55;126047;1093;26258;-81
2021/06/29 02:00:55;;;;;;;13.53;7.80;;;;;;;17.12;72.77;98288.06;126150;1093;22761;-81
2021/06/29 02:03:22;;;;;;;12.53;8.45;;;;;;;17.01;73.13;98283.80;126287;1093;27182;-81
2021/06/29 02:05:49;;;;;;;13.40;8.60;;;;;;;16.95;73.27;98282.22;126039;1093;22781;-81
2021/06/29 02:08:16;;;;;;;11.50;8.43;;;;;;;16.91;73.55;98284.73;126182;1093;22806;-81
2021/06/29 02:10:44;;;;;;;12.70;8.25;;;;;;;16.90;73.74;98280.34;126200;1093;22919;-81
2021/06/29 02:13:10;;;;;;;9.68;8.43;;;;;;;16.92;73.76;98282.80;126211;1093;26239;-81
2021/06/29 02:15:52;;;;;;;8.83;7.27;;;;;;;16.91;73.54;98281.15;126212;1093;22788;-81
2021/06/29 02:18:19;;;;;;;10.57;7.87;;;;;;;16.87;73.25;98289.16;126005;1093;23213;-81
2021/06/29 02:20:45;;;;;;;9.65;8.10;;;;;;;16.76;73.51;98285.66;126241;1093;26296;-81
2021/06/29 02:23:12;;;;;;;9.58;8.50;;;;;;;16.63;73.40;98284.41;126033;1093;25867;-81
2021/06/29 02:25:39;;;;;;;14.33;8.30;;;;;;;16.57;74.35;98288.30;126277;1093;26283;-81
2021/06/29 02:28:06;;;;;;;16.37;8.03;;;;;;;16.52;74.07;98293.88;125994;1093;22963;-81
2021/06/29 02:30:33;;;;;;;10.15;8.00;;;;;;;16.44;74.30;98287.05;126236;1093;27194;-81
2021/06/29 02:33:00;;;;;;;12.30;8.83;;;;;;;16.43;74.85;98288.17;126022;1093;22941;-81
2021/06/29 02:35:28;;;;;;;10.47;8.23;;;;;;;16.46;74.84;98292.26;126129;1093;22755;-81
2021/06/29 02:37:56;;;;;;;13.33;8.57;;;;;;;16.49;74.82;98287.00;126062;1092;22762;-81
2021/06/29 02:40:25;;;;;;;11.68;8.30;;;;;;;16.51;74.98;98290.28;126031;1093;26268;-81
2021/06/29 02:42:52;;;;;;;12.17;9.17;;;;;;;16.53;75.06;98279.00;126104;1092;22764;-81
2021/06/29 02:45:20;;;;;;;8.75;7.38;;;;;;;16.56;74.78;98285.87;126165;1093;22760;-81
2021/06/29 02:47:49;;;;;;;14.67;8.67;;;;;;;16.61;75.46;98286.64;126078;1093;22755;-81
2021/06/29 02:50:17;;;;;;;9.90;7.70;;;;;;;16.66;75.42;98283.00;126228;1093;22919;-81
2021/06/29 02:52:45;;;;;;;9.33;7.80;;;;;;;16.72;75.54;98292.05;126189;1092;22769;-81
2021/06/29 02:55:14;;;;;;;10.00;9.00;;;;;;;16.72;74.98;98290.11;126261;1093;27196;-81
2021/06/29 02:57:43;;;;;;;9.93;8.38;;;;;;;16.72;75.06;98294.80;126235;1093;24403;-81
2021/06/29 03:00:15;;;;;;;9.95;7.23;;;;;;;16.73;75.28;98302.73;126034;1093;24870;-81
2021/06/29 03:02:42;;;;;;;9.60;7.73;;;;;;;16.76;75.24;98299.41;126044;1093;22736;-81
2021/06/29 03:05:09;;;;;;;10.40;8.37;;;;;;;16.78;74.98;98285.38;126170;1093;22858;-80
2021/06/29 03:07:51;;;;;;;9.08;7.88;;;;;;;16.82;75.05;98287.27;126020;1093;22770;-81
2021/06/29 03:10:17;;;;;;;9.37;7.83;;;;;;;16.86;75.39;98287.53;126185;1093;24448;-81
2021/06/29 03:12:44;;;;;;;13.48;7.80;;;;;;;16.89;75.15;98296.03;126214;1091;24442;-81
2021/06/29 03:15:11;;;;;;;8.23;7.30;;;;;;;16.95;75.05;98295.98;126047;1093;22787;-81
2021/06/29 03:17:38;;;;;;;9.93;7.97;;;;;;;17.00;75.30;98296.74;126230;1093;22745;-81
2021/06/29 03:20:08;;;;;;;11.00;8.13;;;;;;;16.97;74.46;98291.81;126201;1092;22834;-81
2021/06/29 03:22:50;;;;;;;12.58;8.83;;;;;;;16.92;74.47;98291.05;126021;1093;27208;-81
2021/06/29 03:25:17;;;;;;;13.28;8.55;;;;;;;16.94;74.73;98286.88;126162;1093;24233;-81
2021/06/29 03:27:45;;;;;;;13.70;8.70;;;;;;;16.96;75.28;98289.34;126070;1093;22774;-81
2021/06/29 03:30:12;;;;;;;13.18;7.05;;;;;;;16.98;75.39;98284.38;126213;1093;23328;-81
2021/06/29 03:32:39;;;;;;;9.80;7.73;;;;;;;17.01;75.19;98301.11;126191;1093;22745;-81
2021/06/29 03:35:07;;;;;;;9.70;7.90;;;;;;;17.07;75.59;98297.21;126043;1092;22782;-81
2021/06/29 03:37:37;;;;;;;10.43;8.00;;;;;;;17.13;75.37;98297.16;126246;1092;22857;-81
2021/06/29 03:40:05;;;;;;;9.10;8.15;;;;;;;17.17;75.60;98296.27;125988;1093;22792;-81
2021/06/29 03:42:47;;;;;;;12.20;8.43;;;;;;;17.17;74.46;98295.45;126048;1093;22790;-81
2021/06/29 03:45:14;;;;;;;11.88;8.05;;;;;;;17.10;74.24;98295.80;126066;1093;22779;-80
2021/06/29 03:47:40;;;;;;;15.67;8.63;;;;;;;17.03;74.04;98289.83;126182;1093;22794;-80
2021/06/29 03:50:08;;;;;;;12.63;8.60;;;;;;;17.01;74.78;98292.05;125990;1093;22767;-80
2021/06/29 03:52:35;;;;;;;12.50;8.95;;;;;;;17.02;75.24;98301.95;126033;1092;24462;-80
2021/06/29 03:55:02;;;;;;;14.43;8.65;;;;;;;17.06;75.61;98308.50;126175;1093;22770;-81
2021/06/29 03:57:29;;;;;;;12.30;8.50;;;;;;;17.13;75.52;98308.17;126028;1093;22803;-81
2021/06/29 04:00:12;;;;;;;11.28;8.35;;;;;;;17.20;76.04;98306.70;126173;1093;22805;-81
2021/06/29 04:02:39;;;;;;;10.27;8.07;;;;;;;17.27;76.27;98309.11;126196;1093;25938;-81
2021/06/29 04:05:07;;;;;;;9.87;7.83;;;;;;;17.36;75.58;98309.28;126182;1093;26364;-81
2021/06/29 04:07:35;;;;;;;8.63;7.73;;;;;;;17.43;75.75;98304.24;126113;1093;24428;-81
2021/06/29 04:10:05;;;;;;;10.53;8.05;;;;;;;17.51;75.19;98306.36;126014;1093;22784;-81
2021/06/29 04:12:31;;;;;;;12.43;8.75;;;;;;;17.58;75.62;98305.97;126211;1093;22815;-81
2021/06/29 04:14:58;;;;;;;11.88;9.43;;;;;;;17.61;75.54;98310.90;126180;1092;22761;-81
2021/06/29 04:17:25;;;;;;;14.78;9.00;;;;;;;17.66;75.46;98308.08;126164;1092;22761;-81
2021/06/29 04:19:52;;;;;;;12.13;8.87;;;;;;;17.72;75.02;98306.08;126249;1092;22874;-81
2021/06/29 04:22:19;;;;;;;13.00;8.95;;;;;;;17.76;75.16;98296.09;126062;1093;22760;-81
2021/06/29 04:24:45;;;;;;;12.30;8.73;;;;;;;17.80;75.01;98297.98;126045;1093;22839;-81
2021/06/29 04:27:12;;;;;;;11.13;8.47;;;;;;;17.84;75.32;98296.25;126262;1093;22869;-81
2021/06/29 04:29:39;;;;;;;11.75;8.63;;;;;;;17.89;75.07;98292.66;126063;1093;26851;-81
2021/06/29 04:32:06;;;;;;;12.45;7.95;;;;;;;17.95;74.81;98285.13;126034;1093;22809;-81
2021/06/29 04:34:33;;;;;;;8.80;7.95;;;;;;;18.02;74.96;98283.66;126050;1093;24426;-81
2021/06/29 04:37:01;;;;;;;10.20;7.90;;;;;;;18.09;74.52;98283.26;126253;1092;22761;-81
2021/06/29 04:39:29;;;;;;;8.93;7.80;;;;;;;18.18;74.58;98269.63;126208;1093;22790;-81
2021/06/29 04:42:11;;;;;;;9.83;8.10;;;;;;;18.23;74.42;98264.03;126046;1093;22794;-81
2021/06/29 04:44:39;;;;;;;12.88;8.58;;;;;;;18.27;74.33;98267.01;126057;1093;22845;-81
2021/06/29 04:47:08;;;;;;;9.20;7.43;;;;;;;18.35;73.91;98266.34;126153;1093;22794;-81
2021/06/29 04:49:36;;;;;;;8.40;7.38;;;;;;;18.42;73.32;98266.77;126198;1093;22948;-81
2021/06/29 04:52:05;;;;;;;9.73;7.55;;;;;;;18.49;73.18;98263.63;126050;1093;22791;-81
2021/06/29 04:54:32;;;;;;;9.03;8.10;;;;;;;18.55;73.13;98270.68;126049;1093;22763;-81
2021/06/29 04:57:00;;;;;;;10.35;8.35;;;;;;;18.63;72.98;98266.40;126064;1093;22798;-81
2021/06/29 04:59:26;;;;;;;8.65;7.75;;;;;;;18.67;72.47;98265.50;126075;1093;22922;-81
2021/06/29 05:02:08;;;;;;;9.15;8.23;;;;;;;18.73;72.36;98261.55;126248;1093;22763;-81
2021/06/29 05:04:50;;;;;;;8.60;7.63;;;;;;;18.81;72.14;98260.02;126252;1093;26305;-81
2021/06/29 05:07:16;;;;;;;10.15;7.58;;;;;;;18.90;71.88;98266.50;126001;1093;22854;-81
2021/06/29 05:09:43;;;;;;;10.50;6.83;;;;;;;18.97;71.79;98261.39;126028;1092;22802;-80
2021/06/29 05:12:11;;;;;;;10.23;7.43;;;;;;;19.05;71.66;98265.41;126170;1092;22761;-80
2021/06/29 05:14:37;;;;;;;11.13;7.68;;;;;;;19.13;71.39;98264.67;126333;1093;27204;-80
2021/06/29 05:17:04;;;;;;;10.65;6.75;;;;;;;19.22;70.86;98272.25;126173;1092;25986;-80
2021/06/29 05:19:31;;;;;;;7.48;6.78;;;;;;;19.29;70.74;98269.90;126257;1093;22784;-80
2021/06/29 05:21:58;;;;;;;7.80;6.80;;;;;;;19.35;70.73;98268.66;126026;1093;22938;-80
2021/06/29 05:24:26;;;;;;;7.13;6.45;;;;;;;19.42;70.51;98263.53;126156;1093;22918;-80
2021/06/29 05:26:53;;;;;;;8.55;6.85;;;;;;;19.48;70.44;98273.37;126206;1093;26334;-80
2021/06/29 05:29:19;;;;;;;8.88;6.45;;;;;;;19.54;70.44;98266.59;126021;1093;22754;-81
2021/06/29 05:31:46;;;;;;;8.33;6.38;;;;;;;19.62;70.28;98267.83;126151;1093;23039;-81
2021/06/29 05:34:13;;;;;;;8.33;6.45;;;;;;;19.68;69.81;98274.06;126158;1093;22761;-81
2021/06/29 05:36:40;;;;;;;8.03;7.23;;;;;;;19.75;69.82;98273.67;126002;1093;22770;-81
2021/06/29 05:39:07;;;;;;;9.38;6.10;;;;;;;19.80;69.46;98266.09;126147;1093;22918;-81
2021/06/29 05:41:34;;;;;;;9.45;6.50;;;;;;;19.87;69.37;98269.23;126172;1093;22761;-81
2021/06/29 05:44:01;;;;;;;8.65;7.40;;;;;;;19.95;69.58;98261.34;126033;1093;22765;-81
2021/06/29 05:46:43;;;;;;;7.55;6.78;;;;;;;20.03;69.53;98257.84;126219;1092;22770;-81
2021/06/29 05:49:12;;;;;;;9.88;6.50;;;;;;;20.12;69.38;98263.45;126061;1093;22776;-81
2021/06/29 05:51:46;;;;;;;7.53;5.98;;;;;;;20.22;69.20;98260.41;126209;1091;22794;-81
2021/06/29 05:54:14;;;;;;;8.05;6.48;;;;;;;20.32;69.03;98262.94;126026;1093;22815;-81
2021/06/29 05:56:41;;;;;;;9.25;6.68;;;;;;;20.47;69.15;98270.86;126641;1093;22756;-81
2021/06/29 05:59:10;;;;;;;8.68;7.10;;;;;;;20.65;68.28;98262.71;126441;1092;22790;-81
2021/06/29 06:01:52;;;;;;;8.43;6.95;;;;;;;20.77;68.42;98262.11;126527;1093;22764;-81
2021/06/29 06:04:20;;;;;;;8.50;5.70;;;;;;;20.86;68.09;98257.46;126394;1093;27209;-81
2021/06/29 06:06:46;;;;;;;7.75;6.13;;;;;;;20.92;68.13;98258.13;126563;1093;22761;-81
2021/06/29 06:09:13;;;;;;;7.40;6.60;;;;;;;20.97;68.07;98247.73;126331;1093;22792;-81
2021/06/29 06:11:40;;;;;;;7.58;6.78;;;;;;;21.01;67.49;98248.72;126486;1093;22760;-81
2021/06/29 06:14:07;;;;;;;9.25;5.88;;;;;;;21.08;67.69;98247.45;126445;1092;27351;-81
2021/06/29 06:16:34;;;;;;;8.53;6.35;;;;;;;21.15;67.85;98256.92;126582;1093;22764;-81
2021/06/29 06:19:01;;;;;;;11.30;6.35;;;;;;;21.22;67.92;98260.05;126330;1092;27367;-81
2021/06/29 06:21:28;;;;;;;8.68;6.18;;;;;;;21.29;67.81;98251.28;126323;1093;22785;-81
2021/06/29 06:23:55;;;;;;;8.18;6.70;;;;;;;21.36;67.30;98254.39;126625;1093;22785;-81
2021/06/29 06:26:22;;;;;;;7.93;6.40;;;;;;;21.41;66.97;98250.67;126537;1093;22823;-81
2021/06/29 06:28:49;;;;;;;10.05;6.55;;;;;;;21.48;67.06;98259.36;126306;1093;22777;-81
2021/06/29 06:31:16;;;;;;;8.28;6.05;;;;;;;21.55;66.65;98253.34;126302;1092;24561;-81
2021/06/29 06:33:57;;;;;;;8.28;6.40;;;;;;;21.60;66.23;98244.86;126254;1093;27403;-81
2021/06/29 06:36:24;;;;;;;8.78;6.90;;;;;;;21.67;65.69;98244.39;126145;1093;22773;-80
2021/06/29 06:38:51;;;;;;;7.47;5.97;;;;;;;21.73;65.56;98243.11;126221;1093;22771;-81
2021/06/29 06:41:18;;;;;;;10.38;6.30;;;;;;;21.80;65.41;98249.80;126063;1093;22787;-81
2021/06/29 06:43:45;;;;;;;8.90;5.93;;;;;;;21.92;65.18;98248.32;126442;1093;27369;-81
2021/06/29 06:46:12;;;;;;;7.63;5.98;;;;;;;22.03;64.80;98240.50;126401;1093;22876;-81
2021/06/29 06:48:42;;;;;;;6.43;5.78;;;;;;;22.14;64.49;98245.40;126066;1092;26245;-81
2021/06/29 06:51:10;;;;;;;8.40;5.18;;;;;;;22.26;63.76;98244.75;126284;1093;24410;-81
2021/06/29 06:53:37;;;;;;;7.28;5.60;;;;;;;22.38;63.04;98238.55;126032;1092;22815;-81
2021/06/29 06:56:05;;;;;;;7.73;5.80;;;;;;;22.50;62.62;98237.88;126052;1092;22760;-81
2021/06/29 06:58:31;;;;;;;6.43;5.60;;;;;;;22.63;62.74;98236.05;125994;1093;22861;-81
2021/06/29 07:00:59;;;;;;;6.08;5.40;;;;;;;22.74;62.25;98242.91;126166;1093;22764;-81
2021/06/29 07:03:27;;;;;;;5.70;5.20;;;;;;;22.86;60.74;98237.48;126015;1093;22924;-81
2021/06/29 07:05:53;;;;;;;6.78;5.38;;;;;;;23.01;60.76;98222.22;126004;1092;22838;-81
2021/06/29 07:08:20;;;;;;;11.13;5.55;;;;;;;23.15;60.08;98224.81;126143;1093;24515;-81
2021/06/29 07:10:48;;;;;;;7.10;5.48;;;;;;;23.29;59.23;98221.80;126024;1093;22764;-81
2021/06/29 07:13:15;;;;;;;7.53;5.70;;;;;;;23.38;59.83;98227.31;126246;1093;22757;-81
2021/06/29 07:15:42;;;;;;;5.45;4.95;;;;;;;23.44;59.02;98224.02;126260;1093;24554;-81
2021/06/29 07:18:14;;;;;;;5.65;4.95;;;;;;;23.52;58.67;98224.30;126186;1093;22787;-81
2021/06/29 07:20:42;;;;;;;6.70;5.60;;;;;;;23.59;59.01;98228.16;126258;1093;27154;-81
2021/06/29 07:23:13;;;;;;;8.05;6.05;;;;;;;23.73;58.71;98221.52;126280;1092;26245;-81
2021/06/29 07:25:41;;;;;;;6.80;5.35;;;;;;;23.84;58.13;98215.25;126022;1093;22826;-81
2021/06/29 07:28:09;;;;;;;6.48;5.88;;;;;;;23.92;58.07;98221.09;126114;1093;22770;-81
2021/06/29 07:30:37;;;;;;;6.50;5.30;;;;;;;23.97;57.70;98215.33;126067;1093;22799;-81
2021/06/29 07:33:06;;;;;;;9.50;6.35;;;;;;;24.06;57.27;98213.27;126157;1092;22753;-81
2021/06/29 07:35:33;;;;;;;;;;;;;;;24.14;56.61;98204.05;126050;1093;22815;-81
2021/06/29 07:38:00;;;;;;;6.55;5.88;;;;;;;24.21;56.58;98209.07;126163;1093;21454;-81
2021/06/29 07:40:30;;;;;;;7.75;6.15;;;;;;;24.32;57.16;98203.89;126235;1092;22937;-81
2021/06/29 07:43:12;;;;;;;6.28;5.63;;;;;;;24.42;56.65;98217.38;126159;1093;26433;-81
2021/06/29 07:45:39;;;;;;;5.43;4.93;;;;;;;24.55;54.88;98209.91;126190;1092;22762;-81
2021/06/29 07:48:06;;;;;;;5.78;5.18;;;;;;;24.62;54.21;98205.39;126153;1093;26277;-81
2021/06/29 07:50:48;;;;;;;6.13;5.10;;;;;;;24.73;54.85;98202.17;126079;1093;22856;-81
2021/06/29 07:53:14;;;;;;;7.65;5.00;;;;;;;24.86;53.56;98203.83;126188;1092;22755;-81
2021/06/29 07:55:41;;;;;;;5.60;5.00;;;;;;;24.96;52.93;98208.13;126016;1093;22925;-81
2021/06/29 07:58:28;;;;;;;6.88;4.93;;;;;;;25.08;52.42;98207.33;126242;1093;22769;-81
2021/06/29 08:00:56;;;;;;;5.65;5.08;;;;;;;25.19;51.82;98198.14;126062;1093;22767;-81
2021/06/29 08:03:23;;;;;;;4.93;4.53;;;;;;;25.28;50.79;98208.40;126005;1093;22788;-81
2021/06/29 08:05:50;;;;;;;5.25;4.45;;;;;;;25.36;50.97;98218.63;126031;1092;25903;-81
2021/06/29 08:08:17;;;;;;;5.65;4.73;;;;;;;25.44;50.84;98223.25;126001;1092;22930;-81
2021/06/29 08:10:44;;;;;;;4.83;4.38;;;;;;;25.49;50.38;98214.66;126215;1093;22781;-81
2021/06/29 08:13:11;;;;;;;6.08;4.85;;;;;;;25.57;50.39;98216.52;126051;1093;22852;-81
2021/06/29 08:15:53;;;;;;;5.83;4.45;;;;;;;25.68;50.65;98218.83;126117;1093;24135;-81
2021/06/29 08:18:23;;;;;;;5.15;4.75;;;;;;;25.82;51.08;98219.26;126150;1093;22918;-81
2021/06/29 08:20:53;;;;;;;4.43;4.08;;;;;;;25.99;50.10;98214.59;126220;1093;22761;-81
2021/06/29 08:23:21;;;;;;;4.53;4.03;;;;;;;26.13;48.96;98212.21;126230;1093;27592;-81
2021/06/29 08:25:48;;;;;;;4.40;3.63;;;;;;;26.23;47.92;98210.91;126149;1093;24441;-81
2021/06/29 08:28:15;;;;;;;4.50;4.10;;;;;;;26.36;47.97;98206.08;126207;1093;22762;-81
2021/06/29 08:30:42;;;;;;;3.88;3.58;;;;;;;26.48;47.86;98212.41;126192;1093;27154;-81
2021/06/29 08:33:13;;;;;;;5.93;3.40;;;;;;;26.61;46.09;98203.96;126056;1093;22784;-81
2021/06/29 08:35:44;;;;;;;3.55;3.25;;;;;;;26.71;45.70;98212.66;126274;1093;22764;-81
2021/06/29 08:38:26;;;;;;;5.43;3.68;;;;;;;26.86;44.97;98211.06;126063;1093;22851;-81
2021/06/29 08:40:54;;;;;;;3.53;3.23;;;;;;;26.99;45.51;98213.78;126769;1093;22764;-82
2021/06/29 08:43:21;;;;;;;3.87;3.57;;;;;;;27.07;44.15;98205.21;126577;1093;26315;-81
2021/06/29 08:45:49;;;;;;;5.10;3.40;;;;;;;27.03;42.73;98204.30;126640;1093;22850;-81
2021/06/29 08:48:16;;;;;;;6.17;3.37;;;;;;;27.15;43.56;98208.19;126718;1093;22817;-81
2021/06/29 08:51:04;;;;;;;3.83;3.40;;;;;;;27.27;44.13;98208.12;126453;1093;24411;-81
2021/06/29 08:53:33;;;;;;;5.35;4.00;;;;;;;27.39;44.25;98210.81;126514;1092;22745;-81
2021/06/29 08:56:00;;;;;;;;;;;;;;;27.52;43.04;98199.52;126672;1093;22856;-81
2021/06/29 08:58:31;;;;;;;4.23;3.60;;;;;;;27.67;43.52;98198.64;126677;1093;21495;-81
2021/06/29 09:00:58;;;;;;;4.38;3.98;;;;;;;27.67;43.06;98201.44;126810;1092;22790;-81
2021/06/29 09:03:25;;;;;;;8.75;4.08;;;;;;;27.76;42.68;98190.84;126499;1093;22784;-81
2021/06/29 09:05:54;;;;;;;4.13;3.73;;;;;;;27.89;43.18;98199.11;126700;1093;22798;-81
2021/06/29 09:08:40;;;;;;;6.25;3.73;;;;;;;27.93;42.78;98198.05;126543;1092;26261;-81
2021/06/29 09:11:17;;;;;;;3.93;3.63;;;;;;;27.84;42.70;98192.63;126208;1093;22800;-82
2021/06/29 09:14:08;;;;;;;4.53;4.13;;;;;;;27.86;43.32;98195.06;126069;1093;24441;-81
2021/06/29 09:16:35;;;;;;;4.43;4.03;;;;;;;27.93;43.29;98177.66;126056;1093;22761;-81
2021/06/29 09:19:03;;;;;;;4.68;3.80;;;;;;;28.12;44.14;98183.25;126113;1093;24141;-81
2021/06/29 09:21:36;;;;;;;5.23;4.73;;;;;;;28.26;44.11;98182.73;126070;1093;22765;-81
2021/06/29 09:24:05;;;;;;;4.33;3.93;;;;;;;28.48;43.97;98183.14;126079;1093;22761;-81
2021/06/29 09:26:41;;;;;;;5.68;4.10;;;;;;;28.47;43.08;98179.52;126135;1093;22934;-81
2021/06/29 09:29:09;;;;;;;5.08;4.58;;;;;;;28.43;42.86;98189.84;126209;1093;22780;-81
2021/06/29 09:31:42;;;;;;;4.33;4.03;;;;;;;28.37;42.17;98194.95;126079;1093;22925;-81
2021/06/29 09:34:12;;;;;;;5.50;4.90;;;;;;;28.27;43.29;98187.14;126056;1093;22858;-81
2021/06/29 09:36:42;;;;;;;;;;;;;;;28.22;44.09;98176.23;126204;1093;22768;-81
2021/06/29 09:39:14;;;;;;;4.73;4.33;;;;;;;28.11;43.97;98186.42;126258;1093;23246;-82
2021/06/29 09:41:47;;;;;;;6.35;4.58;;;;;;;27.99;43.82;98187.36;126206;1093;27422;-81
2021/06/29 09:44:35;;;;;;;4.50;4.10;;;;;;;27.84;44.42;98183.43;126155;1093;22767;-82
2021/06/29 09:47:23;;;;;;;6.70;4.78;;;;;;;27.73;45.00;98182.37;126049;1093;22899;-82
2021/06/29 09:49:49;;;;;;;6.00;4.57;;;;;;;27.63;44.97;98183.77;126126;1093;22814;-81
2021/06/29 09:52:32;;;;;;;5.68;4.65;;;;;;;27.56;45.76;98173.22;126196;1093;27348;-81
2021/06/29 09:55:03;;;;;;;7.50;4.65;;;;;;;27.45;45.05;98167.39;126060;1093;25849;-81
2021/06/29 09:57:30;;;;;;;4.78;4.38;;;;;;;27.40;45.35;98173.27;126161;1093;22781;-81
2021/06/29 09:59:57;;;;;;;5.10;4.53;;;;;;;27.35;45.66;98169.94;126205;1093;22807;-81
2021/06/29 10:02:31;;;;;;;6.33;4.20;;;;;;;27.30;45.94;98162.63;125960;1093;22751;-81
2021/06/29 10:05:24;;;;;;;6.68;4.63;;;;;;;27.23;47.22;98163.27;126106;1092;22854;-81
2021/06/29 10:07:53;;;;;;;4.75;4.35;;;;;;;27.17;46.73;98166.70;126012;1092;22794;-81
2021/06/29 10:10:21;;;;;;;4.95;4.55;;;;;;;27.10;46.63;98164.53;126003;1093;22951;-81
2021/06/29 10:13:17;;;;;;;8.28;4.60;;;;;;;26.93;48.07;98162.11;126038;1093;22755;-81
2021/06/29 10:15:44;;;;;;;8.53;4.90;;;;;;;26.77;51.24;98174.08;126190;1093;22778;-81
2021/06/29 10:18:12;;;;;;;5.95;5.10;;;;;;;26.57;53.16;98166.75;126043;1093;22773;-81
2021/06/29 10:23:26;;;;;;;5.78;4.80;;;;;;;26.31;54.40;98177.26;126086;1093;24449;-82
2021/06/29 10:25:54;;;;;;;5.43;4.78;;;;;;;26.26;54.48;98162.72;126256;1093;22770;-82
2021/06/29 10:28:21;;;;;;;6.80;5.60;;;;;;;26.24;55.91;98149.14;126001;1093;22908;-82
2021/06/29 10:30:49;;;;;;;10.15;4.75;;;;;;;26.26;55.72;98152.39;126027;1093;22757;-82
2021/06/29 10:33:17;;;;;;;7.40;4.80;;;;;;;26.30;55.83;98138.52;126222;1093;25858;-82
2021/06/29 10:35:44;;;;;;;;;;;;;;;26.31;55.50;98145.72;126212;1093;26239;-82
2021/06/29 10:38:11;;;;;;;5.85;5.25;;;;;;;26.28;55.37;98141.67;126060;1093;24213;-82
2021/06/29 10:40:54;;;;;;;6.45;5.05;;;;;;;26.24;54.87;98134.35;126207;1093;22761;-82
2021/06/29 10:43:22;;;;;;;4.88;4.38;;;;;;;26.19;55.26;98146.61;126236;1093;22781;-82
2021/06/29 10:45:52;;;;;;;6.60;5.03;;;;;;;26.16;54.84;98141.73;126249;1093;22823;-82
2021/06/29 10:48:27;;;;;;;5.03;4.53;;;;;;;26.21;54.43;98149.84;126046;1093;26776;-82
2021/06/29 10:51:00;;;;;;;6.30;4.90;;;;;;;26.36;54.59;98134.28;126235;1092;22781;-82
2021/06/29 10:53:46;;;;;;;8.50;4.90;;;;;;;26.79;54.46;98146.63;126253;1093;22784;-82
2021/06/29 10:56:20;;;;;;;6.77;4.60;;;;;;;27.01;52.00;98142.36;126141;1093;24567;-82
2021/06/29 10:58:50;;;;;;;7.08;4.63;;;;;;;27.20;52.38;98138.02;126275;1093;26239;-82
2021/06/29 11:01:34;;;;;;;6.15;4.85;;;;;;;27.50;52.45;98138.34;126048;1093;22778;-82
2021/06/29 11:04:05;;;;;;;5.58;4.35;;;;;;;27.70;51.12;98141.95;126227;1093;22796;-82
2021/06/29 11:06:44;;;;;;;12.45;5.10;;;;;;;27.78;51.88;98140.11;126200;1092;22847;-82
2021/06/29 11:09:20;;;;;;;5.45;4.48;;;;;;;27.74;51.22;98153.22;126198;1093;27189;-82
2021/06/29 11:12:19;;;;;;;7.18;4.63;;;;;;;27.65;51.59;98151.44;126238;1093;25867;-82
2021/06/29 11:14:48;;;;;;;6.10;4.38;;;;;;;27.55;51.04;98170.78;126120;1093;25874;-82
2021/06/29 11:17:16;;;;;;;;;;;;;;;27.34;50.86;98177.53;126213;1093;22974;-82
2021/06/29 11:20:03;;;;;;;10.48;5.45;;;;;;;27.16;51.31;98198.61;126229;1093;25660;-82
2021/06/29 11:22:49;;;;;;;10.50;5.78;;;;;;;26.90;52.38;98197.19;126173;1093;22775;-82
2021/06/29 11:25:41;;;;;;;6.55;4.93;;;;;;;26.79;52.06;98162.55;126043;1093;24427;-82
2021/06/29 11:28:27;;;;;;;7.08;4.63;;;;;;;26.86;52.34;98140.38;126007;1093;22770;-81
2021/06/29 11:31:01;;;;;;;12.68;5.18;;;;;;;26.96;52.55;98119.47;126263;1093;26277;-82
2021/06/29 11:33:40;;;;;;;5.97;4.53;;;;;;;27.25;52.72;98123.73;126240;1092;26251;-82
2021/06/29 11:36:32;;;;;;;5.40;4.88;;;;;;;27.71;51.12;98120.38;126160;1093;27195;-82
2021/06/29 11:39:20;;;;;;;5.87;5.00;;;;;;;28.21;49.75;98116.63;126156;1091;27266;-81
2021/06/29 11:42:01;;;;;;;6.03;4.80;;;;;;;28.63;48.27;98109.38;126253;1093;24695;-81